^^
Datos históricos de la estación: Murcia-Puente Tocinos
Diario Informe para Enero 5, 2019 Unidades:  Ambas    Ingés   Métrico
Diario Semanal Mensual Anual
  Máxima: Mínima: Promedio:
Temperatura: 94.3 °F /  34.6 °C 75.7 °F /  24.3 °C 83.3 °F /  28.5 °C
Punto de rocio: 73.4 °F /  23 °C 69.6 °F /  20.9 °C 72.1 °F /  22.3 °C
Humedad: 86% 49.6% 71%
Velocidad viento: 12.3mph /  19.8km/h - 5.5mph /  8.8km/h
Racha viento: 23mph /  37km/h - -
Viento- - Este
Presión: 29.9 in /  1013.1 hPa 29.8 in /  1009.0 hPa -
Precipitación: 0 in /  0.0 mm    
 
 
Tabla de datos para Enero 5, 2019
Hora Temperatura Punto de rocio Presión Viento Velocidad viento Racha viento Humedad Intensidad lluvia(por hora) Nubes
00:04 79.5 °F /  26.4 °C 70.7 °F /  21.5 °C 29.9in /  1013.0hPa NE 5.9mph /  9.5km/h 9.7mph /  15.6km/h 74.7% 0in /  0.0mm
00:09 79.3 °F /  26.3 °C 70.9 °F /  21.6 °C 29.9in /  1013.0hPa NNE 6mph /  9.7km/h 11.5mph /  18.5km/h 75.6% 0in /  0.0mm
00:14 79.3 °F /  26.3 °C 71.2 °F /  21.8 °C 29.9in /  1013.0hPa NE 6.2mph /  10km/h 12mph /  19.3km/h 76.5% 0in /  0.0mm
00:19 79.2 °F /  26.2 °C 71.2 °F /  21.8 °C 29.9in /  1013.0hPa NE 6.3mph /  10.1km/h 12mph /  19.3km/h 77% 0in /  0.0mm
00:24 79.2 °F /  26.2 °C 71.2 °F /  21.8 °C 29.9in /  1013.0hPa NNE 6.4mph /  10.3km/h 9mph /  14.5km/h 77% 0in /  0.0mm
00:29 79.2 °F /  26.2 °C 71.6 °F /  22 °C 29.9in /  1013.0hPa NNE 5.8mph /  9.4km/h 8mph /  12.9km/h 77.9% 0in /  0.0mm
00:34 79 °F /  26.1 °C 71.6 °F /  22 °C 29.9in /  1013.1hPa NNE 4.7mph /  7.6km/h 9.2mph /  14.8km/h 78.1% 0in /  0.0mm
00:39 79 °F /  26.1 °C 72 °F /  22.2 °C 29.9in /  1013.1hPa NE 4.7mph /  7.6km/h 9.2mph /  14.8km/h 79% 0in /  0.0mm
00:44 79 °F /  26.1 °C 72.1 °F /  22.3 °C 29.9in /  1013.1hPa NE 4.7mph /  7.6km/h 9.2mph /  14.8km/h 79.4% 0in /  0.0mm
00:49 79 °F /  26.1 °C 72.1 °F /  22.3 °C 29.9in /  1013.1hPa NNE 4.7mph /  7.6km/h 8.1mph /  13km/h 80% 0in /  0.0mm
00:54 78.8 °F /  26 °C 72.3 °F /  22.4 °C 29.9in /  1013.1hPa NNE 4.7mph /  7.6km/h 10.4mph /  16.7km/h 80.9% 0in /  0.0mm
00:59 78.6 °F /  25.9 °C 72.5 °F /  22.5 °C 29.9in /  1013.1hPa NNE 5.2mph /  8.3km/h 10.4mph /  16.7km/h 81.5% 0in /  0.0mm
01:04 78.4 °F /  25.8 °C 72.5 °F /  22.5 °C 29.9in /  1013.1hPa NE 5.9mph /  9.5km/h 10mph /  16.1km/h 82% 0in /  0.0mm
01:09 78.4 °F /  25.8 °C 72.5 °F /  22.5 °C 29.9in /  1013.0hPa NE 5.9mph /  9.5km/h 9.7mph /  15.6km/h 82% 0in /  0.0mm
01:14 78.4 °F /  25.8 °C 72.5 °F /  22.5 °C 29.9in /  1013.0hPa NNE 5.9mph /  9.5km/h 10.4mph /  16.7km/h 82% 0in /  0.0mm
01:19 78.4 °F /  25.8 °C 72.5 °F /  22.5 °C 29.9in /  1013.0hPa NE 5.7mph /  9.1km/h 10mph /  16.1km/h 82.2% 0in /  0.0mm
01:24 78.4 °F /  25.8 °C 72.9 °F /  22.7 °C 29.9in /  1012.8hPa NNE 5.2mph /  8.4km/h 8.1mph /  13km/h 83% 0in /  0.0mm
01:29 78.3 °F /  25.7 °C 72.7 °F /  22.6 °C 29.9in /  1012.8hPa NE 4.8mph /  7.8km/h 8mph /  12.9km/h 83% 0in /  0.0mm
01:34 78.3 °F /  25.7 °C 72.7 °F /  22.6 °C 29.9in /  1012.9hPa NE 4.3mph /  6.9km/h 7mph /  11.3km/h 83% 0in /  0.0mm
01:39 78.3 °F /  25.7 °C 72.7 °F /  22.6 °C 29.9in /  1012.9hPa NE 4.3mph /  6.9km/h 7mph /  11.3km/h 83% 0in /  0.0mm
01:44 78.3 °F /  25.7 °C 72.9 °F /  22.7 °C 29.9in /  1012.9hPa NE 4.3mph /  6.9km/h 7.4mph /  11.9km/h 83.8% 0in /  0.0mm
01:49 78.1 °F /  25.6 °C 72.9 °F /  22.7 °C 29.9in /  1012.9hPa NE 4.3mph /  6.9km/h 8.1mph /  13km/h 84% 0in /  0.0mm
01:54 78.1 °F /  25.6 °C 72.9 °F /  22.7 °C 29.9in /  1012.9hPa NE 4.3mph /  6.9km/h 8mph /  12.9km/h 84% 0in /  0.0mm
01:59 78.1 °F /  25.6 °C 72.9 °F /  22.7 °C 29.9in /  1012.9hPa NE 4.5mph /  7.2km/h 7mph /  11.3km/h 84% 0in /  0.0mm
02:04 77.9 °F /  25.5 °C 72.7 °F /  22.6 °C 29.9in /  1012.9hPa NE 4.7mph /  7.6km/h 6mph /  9.7km/h 84% 0in /  0.0mm
02:09 77.9 °F /  25.5 °C 72.7 °F /  22.6 °C 29.9in /  1012.7hPa NE 4.3mph /  6.9km/h 6.9mph /  11.1km/h 84% 0in /  0.0mm
02:14 77.7 °F /  25.4 °C 72.9 °F /  22.7 °C 29.9in /  1012.7hPa NE 3.6mph /  5.8km/h 7mph /  11.3km/h 85% 0in /  0.0mm
02:19 77.5 °F /  25.3 °C 72.7 °F /  22.6 °C 29.9in /  1012.7hPa NE 3.9mph /  6.2km/h 7.4mph /  11.9km/h 85% 0in /  0.0mm
02:24 77.5 °F /  25.3 °C 72.7 °F /  22.6 °C 29.9in /  1012.6hPa NE 4.3mph /  6.9km/h 7mph /  11.3km/h 85% 0in /  0.0mm
02:29 77.5 °F /  25.3 °C 72.7 °F /  22.6 °C 29.9in /  1012.6hPa NE 4mph /  6.5km/h 6.2mph /  10km/h 85% 0in /  0.0mm
02:34 77.4 °F /  25.2 °C 72.5 °F /  22.5 °C 29.9in /  1012.6hPa NE 3.6mph /  5.8km/h 6.9mph /  11.1km/h 85% 0in /  0.0mm
02:39 77.4 °F /  25.2 °C 72.5 °F /  22.5 °C 29.9in /  1012.5hPa NNE 3.7mph /  6km/h 7mph /  11.3km/h 85% 0in /  0.0mm
02:44 77.4 °F /  25.2 °C 72.5 °F /  22.5 °C 29.9in /  1012.5hPa NNE 4mph /  6.5km/h 6mph /  9.7km/h 85% 0in /  0.0mm
02:49 77.4 °F /  25.2 °C 72.5 °F /  22.5 °C 29.9in /  1012.5hPa NNE 3.7mph /  5.9km/h 6mph /  9.7km/h 85% 0in /  0.0mm
02:54 77.4 °F /  25.2 °C 72.5 °F /  22.5 °C 29.9in /  1012.4hPa NNO 3.1mph /  5km/h 5mph /  8km/h 85% 0in /  0.0mm
02:59 77.4 °F /  25.2 °C 72.5 °F /  22.5 °C 29.9in /  1012.4hPa NNE 2.7mph /  4.3km/h 5mph /  8km/h 85% 0in /  0.0mm
03:04 77.4 °F /  25.2 °C 72.5 °F /  22.5 °C 29.9in /  1012.4hPa NNO 2mph /  3.2km/h 5mph /  8km/h 85% 0in /  0.0mm
03:09 77.4 °F /  25.2 °C 72.7 °F /  22.6 °C 29.9in /  1012.3hPa North 2mph /  3.2km/h 5.2mph /  8.4km/h 85.6% 0in /  0.0mm
03:14 77.4 °F /  25.2 °C 72.9 °F /  22.7 °C 29.9in /  1012.3hPa NNO 2mph /  3.2km/h 5.2mph /  8.4km/h 86% 0in /  0.0mm
03:19 77.4 °F /  25.2 °C 72.7 °F /  22.6 °C 29.9in /  1012.3hPa North 2.2mph /  3.5km/h 5mph /  8km/h 85.8% 0in /  0.0mm
03:24 77.4 °F /  25.2 °C 72.9 °F /  22.7 °C 29.9in /  1012.3hPa NO 2.4mph /  3.9km/h 4mph /  6.4km/h 86% 0in /  0.0mm
03:29 77.4 °F /  25.2 °C 72.9 °F /  22.7 °C 29.9in /  1012.3hPa North 2.2mph /  3.5km/h 3.5mph /  5.6km/h 86% 0in /  0.0mm
03:34 77.4 °F /  25.2 °C 72.9 °F /  22.7 °C 29.9in /  1012.3hPa NE 1.8mph /  2.9km/h 3mph /  4.8km/h 86% 0in /  0.0mm
03:39 77.4 °F /  25.2 °C 72.9 °F /  22.7 °C 29.9in /  1012.1hPa NNE 1.7mph /  2.7km/h 4.6mph /  7.4km/h 86% 0in /  0.0mm
03:44 77.4 °F /  25.2 °C 72.9 °F /  22.7 °C 29.9in /  1012.1hPa NNO 1.4mph /  2.2km/h 5mph /  8km/h 86% 0in /  0.0mm
03:49 77.4 °F /  25.2 °C 72.9 °F /  22.7 °C 29.9in /  1012.1hPa NNO 1.6mph /  2.5km/h 4mph /  6.4km/h 86% 0in /  0.0mm
03:54 77.4 °F /  25.2 °C 72.9 °F /  22.7 °C 29.9in /  1012.0hPa NNO 1.8mph /  2.9km/h   86% 0in /  0.0mm
03:59 77.4 °F /  25.2 °C 72.9 °F /  22.7 °C 29.9in /  1012.0hPa NNO 1.1mph /  1.8km/h 4mph /  6.4km/h 86% 0in /  0.0mm
04:04 77.4 °F /  25.2 °C 72.9 °F /  22.7 °C 29.9in /  1012.0hPa Calm   5mph /  8km/h 86% 0in /  0.0mm
04:09 77.2 °F /  25.1 °C 72.7 °F /  22.6 °C 29.9in /  1011.9hPa Calm   3mph /  4.8km/h 86% 0in /  0.0mm
04:14 77.2 °F /  25.1 °C 72.7 °F /  22.6 °C 29.9in /  1011.9hPa Calm     86% 0in /  0.0mm
04:19 77.4 °F /  25.2 °C 72.7 °F /  22.6 °C 29.9in /  1011.9hPa Calm     86% 0in /  0.0mm
04:24 77.4 °F /  25.2 °C 72.9 °F /  22.7 °C 29.9in /  1011.8hPa Calm     86% 0in /  0.0mm
04:29 77.4 °F /  25.2 °C 72.9 °F /  22.7 °C 29.9in /  1011.8hPa Calm     86% 0in /  0.0mm
04:34 77.4 °F /  25.2 °C 72.9 °F /  22.7 °C 29.9in /  1011.8hPa Calm     86% 0in /  0.0mm
04:39 77.4 °F /  25.2 °C 72.9 °F /  22.7 °C 29.9in /  1011.7hPa SO 0.5mph /  0.8km/h 4.7mph /  7.6km/h 86% 0in /  0.0mm
04:44 77.4 °F /  25.2 °C 72.9 °F /  22.7 °C 29.9in /  1011.7hPa SO 1.4mph /  2.2km/h 5mph /  8km/h 86% 0in /  0.0mm
04:49 77.4 °F /  25.2 °C 72.9 °F /  22.7 °C 29.9in /  1011.7hPa SSO 1.9mph /  3.1km/h 5mph /  8km/h 86% 0in /  0.0mm
04:54 77.4 °F /  25.2 °C 72.9 °F /  22.7 °C 29.9in /  1011.7hPa Sur 2.9mph /  4.7km/h 5mph /  8km/h 86% 0in /  0.0mm
04:59 77.4 °F /  25.2 °C 72.9 °F /  22.7 °C 29.9in /  1011.7hPa Sur 2.7mph /  4.3km/h 5.9mph /  9.5km/h 86% 0in /  0.0mm
05:04 77.4 °F /  25.2 °C 72.9 °F /  22.7 °C 29.9in /  1011.7hPa Sur 2.4mph /  3.9km/h 6mph /  9.7km/h 86% 0in /  0.0mm
05:09 77.4 °F /  25.2 °C 72.7 °F /  22.6 °C 29.9in /  1011.6hPa SSE 3mph /  4.8km/h 6mph /  9.7km/h 86% 0in /  0.0mm
05:14 77.2 °F /  25.1 °C 72.7 °F /  22.6 °C 29.9in /  1011.6hPa Sur 4mph /  6.5km/h 5.2mph /  8.4km/h 86% 0in /  0.0mm
05:19 77.2 °F /  25.1 °C 72.7 °F /  22.6 °C 29.9in /  1011.6hPa Sur 3.6mph /  5.8km/h 5mph /  8km/h 86% 0in /  0.0mm
05:24 77.4 °F /  25.2 °C 72.7 °F /  22.6 °C 29.9in /  1011.4hPa SSO 2.9mph /  4.7km/h 5mph /  8km/h 86% 0in /  0.0mm
05:29 77.4 °F /  25.2 °C 72.9 °F /  22.7 °C 29.9in /  1011.4hPa SO 2.5mph /  4km/h 4.3mph /  6.9km/h 86% 0in /  0.0mm
05:34 77.4 °F /  25.2 °C 72.9 °F /  22.7 °C 29.9in /  1011.5hPa OSO 1.8mph /  2.9km/h 5mph /  8km/h 86% 0in /  0.0mm
05:39 77.5 °F /  25.3 °C 72.9 °F /  22.7 °C 29.9in /  1011.5hPa SO 1.8mph /  2.9km/h 5mph /  8km/h 86% 0in /  0.0mm
05:44 77.5 °F /  25.3 °C 73 °F /  22.8 °C 29.9in /  1011.5hPa SO 1.8mph /  2.9km/h 5.8mph /  9.3km/h 86% 0in /  0.0mm
05:49 77.5 °F /  25.3 °C 73 °F /  22.8 °C 29.9in /  1011.5hPa OSO 2.1mph /  3.3km/h 6mph /  9.7km/h 86% 0in /  0.0mm
05:54 77.5 °F /  25.3 °C 73 °F /  22.8 °C 29.9in /  1011.4hPa OSO 2.4mph /  3.9km/h 5mph /  8km/h 86% 0in /  0.0mm
05:59 77.5 °F /  25.3 °C 73 °F /  22.8 °C 29.9in /  1011.4hPa OSO 2.2mph /  3.5km/h 5mph /  8km/h 86% 0in /  0.0mm
06:04 77.5 °F /  25.3 °C 73 °F /  22.8 °C 29.9in /  1011.5hPa OSO 1.8mph /  2.9km/h 2mph /  3.2km/h 85.9% 0in /  0.0mm
06:09 77.5 °F /  25.3 °C 72.7 °F /  22.6 °C 29.9in /  1011.5hPa OSO 1.2mph /  1.9km/h   85% 0in /  0.0mm
06:14 77.5 °F /  25.3 °C 72.7 °F /  22.6 °C 29.9in /  1011.5hPa Calm   4.6mph /  7.4km/h 85% 0in /  0.0mm
06:19 77.5 °F /  25.3 °C 72.7 °F /  22.6 °C 29.9in /  1011.6hPa SSO 0.6mph /  1km/h 5mph /  8km/h 85% 0in /  0.0mm
06:24 77.5 °F /  25.3 °C 72.7 °F /  22.6 °C 29.9in /  1011.6hPa ONO 1.8mph /  2.9km/h 4.6mph /  7.4km/h 85% 0in /  0.0mm
06:29 77.4 °F /  25.2 °C 72.5 °F /  22.5 °C 29.9in /  1011.6hPa NO 1.8mph /  2.9km/h 5mph /  8km/h 85% 0in /  0.0mm
06:34 77.4 °F /  25.2 °C 72.5 °F /  22.5 °C 29.9in /  1011.8hPa NO 1.8mph /  2.9km/h 2mph /  3.2km/h 85% 0in /  0.0mm
06:39 77.2 °F /  25.1 °C 72.3 °F /  22.4 °C 29.9in /  1011.8hPa NO 1.2mph /  1.9km/h   85% 0in /  0.0mm
06:44 77.2 °F /  25.1 °C 72.1 °F /  22.3 °C 29.9in /  1011.8hPa Calm   3.5mph /  5.6km/h 84.9% 0in /  0.0mm
06:49 76.8 °F /  24.9 °C 72 °F /  22.2 °C 29.9in /  1011.8hPa ENE 0.5mph /  0.8km/h 3.5mph /  5.6km/h 84.9% 0in /  0.0mm
06:54 76.6 °F /  24.8 °C 71.6 °F /  22 °C 29.9in /  1011.8hPa ENE 1.4mph /  2.2km/h 4.6mph /  7.4km/h 84.4% 0in /  0.0mm
06:59 76.5 °F /  24.7 °C 71.4 °F /  21.9 °C 29.9in /  1011.8hPa ESE 1.6mph /  2.6km/h 5mph /  8km/h 84% 0in /  0.0mm
07:04 76.3 °F /  24.6 °C 71.1 °F /  21.7 °C 29.9in /  1012.0hPa ESE 2mph /  3.2km/h 5mph /  8km/h 84% 0in /  0.0mm
07:09 76.3 °F /  24.6 °C 71.1 °F /  21.7 °C 29.9in /  1012.0hPa ESE 2.3mph /  3.7km/h 5.2mph /  8.4km/h 84% 0in /  0.0mm
07:14 76.1 °F /  24.5 °C 70.9 °F /  21.6 °C 29.9in /  1012.0hPa ESE 2.9mph /  4.7km/h 5.4mph /  8.7km/h 84% 0in /  0.0mm
07:19 75.9 °F /  24.4 °C 70.7 °F /  21.5 °C 29.9in /  1012.2hPa ESE 3.2mph /  5.1km/h 6mph /  9.7km/h 84% 0in /  0.0mm
07:24 75.9 °F /  24.4 °C 70.7 °F /  21.5 °C 29.9in /  1012.2hPa ESE 3.6mph /  5.8km/h 6.2mph /  10km/h 84% 0in /  0.0mm
07:29 75.7 °F /  24.3 °C 70.5 °F /  21.4 °C 29.9in /  1012.2hPa Este 3.6mph /  5.8km/h 7.4mph /  11.9km/h 84% 0in /  0.0mm
07:34 75.7 °F /  24.3 °C 70.5 °F /  21.4 °C 29.9in /  1012.5hPa Este 3.6mph /  5.8km/h 7mph /  11.3km/h 84% 0in /  0.0mm
07:39 75.7 °F /  24.3 °C 70.5 °F /  21.4 °C 29.9in /  1012.5hPa NE 3.7mph /  6km/h 7mph /  11.3km/h 84% 0in /  0.0mm
07:44 75.7 °F /  24.3 °C 70.5 °F /  21.4 °C 29.9in /  1012.5hPa NE 4mph /  6.5km/h 6mph /  9.7km/h 84% 0in /  0.0mm
07:49 75.9 °F /  24.4 °C 70.7 °F /  21.5 °C 29.9in /  1012.6hPa NNE 3.6mph /  5.8km/h 5.2mph /  8.4km/h 84% 0in /  0.0mm
07:54 75.9 °F /  24.4 °C 71.1 °F /  21.7 °C 29.9in /  1012.6hPa NE 2.9mph /  4.7km/h 6.2mph /  10km/h 84.8% 0in /  0.0mm
07:59 75.9 °F /  24.4 °C 71.1 °F /  21.7 °C 29.9in /  1012.6hPa NE 3mph /  4.8km/h 6.9mph /  11.1km/h 85% 0in /  0.0mm
08:04 76.1 °F /  24.5 °C 71.2 °F /  21.8 °C 29.9in /  1012.8hPa ENE 3.1mph /  5km/h 7mph /  11.3km/h 85% 0in /  0.0mm
08:09 76.5 °F /  24.7 °C 71.6 °F /  22 °C 29.9in /  1012.8hPa Este 3.4mph /  5.5km/h 9.2mph /  14.8km/h 85% 0in /  0.0mm
08:14 76.6 °F /  24.8 °C 71.8 °F /  22.1 °C 29.9in /  1012.8hPa Este 4mph /  6.5km/h 9mph /  14.5km/h 84.9% 0in /  0.0mm
08:19 77 °F /  25 °C 71.8 °F /  22.1 °C 29.9in /  1012.9hPa Este 4mph /  6.5km/h 6mph /  9.7km/h 84.1% 0in /  0.0mm
08:24 77.4 °F /  25.2 °C 71.8 °F /  22.1 °C 29.9in /  1012.9hPa Este 4mph /  6.5km/h 5.4mph /  8.7km/h 83.2% 0in /  0.0mm
08:29 77.5 °F /  25.3 °C 72 °F /  22.2 °C 29.9in /  1012.9hPa Este 3.6mph /  5.8km/h 6mph /  9.7km/h 83% 0in /  0.0mm
08:34 77.7 °F /  25.4 °C 72.1 °F /  22.3 °C 29.9in /  1012.9hPa ENE 2.9mph /  4.7km/h 5mph /  8km/h 83% 0in /  0.0mm
08:39 78.3 °F /  25.7 °C 72.3 °F /  22.4 °C 29.9in /  1012.9hPa NE 2.5mph /  4km/h 4.3mph /  6.9km/h 82.3% 0in /  0.0mm
08:44 78.6 °F /  25.9 °C 72.7 °F /  22.6 °C 29.9in /  1012.9hPa NE 1.8mph /  2.9km/h 5mph /  8km/h 81.9% 0in /  0.0mm
08:49 79 °F /  26.1 °C 72.7 °F /  22.6 °C 29.9in /  1013.0hPa NE 2.2mph /  3.6km/h 5mph /  8km/h 81% 0in /  0.0mm
08:54 79.3 °F /  26.3 °C 72.5 °F /  22.5 °C 29.9in /  1013.0hPa NNE 2.9mph /  4.7km/h 6.9mph /  11.1km/h 80% 0in /  0.0mm
08:59 79.3 °F /  26.3 °C 72.5 °F /  22.5 °C 29.9in /  1013.0hPa NNE 3mph /  4.8km/h 7mph /  11.3km/h 79.8% 0in /  0.0mm
09:04 79.3 °F /  26.3 °C 72.5 °F /  22.5 °C 29.9in /  1013.0hPa NE 3.1mph /  5km/h 6mph /  9.7km/h 79.7% 0in /  0.0mm
09:09 79.3 °F /  26.3 °C 72.5 °F /  22.5 °C 29.9in /  1013.0hPa NE 3.3mph /  5.3km/h 5.8mph /  9.3km/h 79.8% 0in /  0.0mm
09:14 79.5 °F /  26.4 °C 72.3 °F /  22.4 °C 29.9in /  1013.0hPa NE 3.6mph /  5.8km/h 7.4mph /  11.9km/h 78.7% 0in /  0.0mm
09:19 79.5 °F /  26.4 °C 72.3 °F /  22.4 °C 29.9in /  1013.0hPa NE 3.7mph /  6km/h 7mph /  11.3km/h 78.8% 0in /  0.0mm
09:24 79.9 °F /  26.6 °C 72.3 °F /  22.4 °C 29.9in /  1012.9hPa NNE 4mph /  6.5km/h 7mph /  11.3km/h 78% 0in /  0.0mm
09:29 80.1 °F /  26.7 °C 72.5 °F /  22.5 °C 29.9in /  1012.9hPa NNE 4mph /  6.5km/h 8.1mph /  13km/h 78% 0in /  0.0mm
09:34 80.1 °F /  26.7 °C 72.7 °F /  22.6 °C 29.9in /  1012.9hPa NNE 4mph /  6.5km/h 8mph /  12.9km/h 78% 0in /  0.0mm
09:39 80.2 °F /  26.8 °C 72.9 °F /  22.7 °C 29.9in /  1012.9hPa NE 4.1mph /  6.6km/h 9.7mph /  15.6km/h 78% 0in /  0.0mm
09:44 80.1 °F /  26.7 °C 72.7 °F /  22.6 °C 29.9in /  1012.9hPa NE 4.3mph /  6.9km/h 10mph /  16.1km/h 78% 0in /  0.0mm
09:49 80.2 °F /  26.8 °C 72.7 °F /  22.6 °C 29.9in /  1012.9hPa NNE 5mph /  8.1km/h 10.4mph /  16.7km/h 78% 0in /  0.0mm
09:54 80.2 °F /  26.8 °C 72.9 °F /  22.7 °C 29.9in /  1012.9hPa NE 6.2mph /  10km/h 10.7mph /  17.2km/h 78% 0in /  0.0mm
09:59 80.4 °F /  26.9 °C 72.7 °F /  22.6 °C 29.9in /  1012.9hPa NNE 5.8mph /  9.3km/h 11mph /  17.7km/h 77.5% 0in /  0.0mm
10:04 80.6 °F /  27 °C 72.7 °F /  22.6 °C 29.9in /  1013.1hPa NNE 5.2mph /  8.4km/h 10mph /  16.1km/h 77% 0in /  0.0mm
10:09 80.6 °F /  27 °C 72.7 °F /  22.6 °C 29.9in /  1013.1hPa NNE 5.5mph /  8.8km/h 9mph /  14.5km/h 76.9% 0in /  0.0mm
10:14 81 °F /  27.2 °C 72.7 °F /  22.6 °C 29.9in /  1013.1hPa NE 5.9mph /  9.5km/h 9mph /  14.5km/h 76% 0in /  0.0mm
10:19 81.1 °F /  27.3 °C 72.5 °F /  22.5 °C 29.9in /  1013.1hPa NNE 5.3mph /  8.6km/h 8mph /  12.9km/h 75.1% 0in /  0.0mm
10:24 81.7 °F /  27.6 °C 72.9 °F /  22.7 °C 29.9in /  1013.0hPa NNE 4.3mph /  6.9km/h 8.1mph /  13km/h 74.7% 0in /  0.0mm
10:29 81.9 °F /  27.7 °C 72.7 °F /  22.6 °C 29.9in /  1013.0hPa NE 4.5mph /  7.2km/h 9.2mph /  14.8km/h 74% 0in /  0.0mm
10:34 81.9 °F /  27.7 °C 72.5 °F /  22.5 °C 29.9in /  1013.0hPa North 4.7mph /  7.6km/h 9mph /  14.5km/h 73.3% 0in /  0.0mm
10:39 82 °F /  27.8 °C 72.5 °F /  22.5 °C 29.9in /  1013.0hPa NNO 4.5mph /  7.2km/h 8.5mph /  13.7km/h 72.9% 0in /  0.0mm
10:44 82.6 °F /  28.1 °C 72.7 °F /  22.6 °C 29.9in /  1013.0hPa NE 4mph /  6.5km/h 9.7mph /  15.6km/h 72.5% 0in /  0.0mm
10:49 82.8 °F /  28.2 °C 72.7 °F /  22.6 °C 29.9in /  1013.0hPa ENE 4.1mph /  6.6km/h 10mph /  16.1km/h 71.7% 0in /  0.0mm
10:54 83.1 °F /  28.4 °C 72.5 °F /  22.5 °C 29.9in /  1012.9hPa NNE 4.3mph /  6.9km/h 9.2mph /  14.8km/h 70.6% 0in /  0.0mm
10:59 83.1 °F /  28.4 °C 72.3 °F /  22.4 °C 29.9in /  1012.9hPa NE 4.3mph /  6.9km/h 9mph /  14.5km/h 70.1% 0in /  0.0mm
11:04 82.9 °F /  28.3 °C 72.1 °F /  22.3 °C 29.9in /  1012.9hPa NE 4.3mph /  6.9km/h 7mph /  11.3km/h 69.8% 0in /  0.0mm
11:09 83.1 °F /  28.4 °C 72.3 °F /  22.4 °C 29.9in /  1012.8hPa NE 4.3mph /  6.9km/h 8.1mph /  13km/h 70% 0in /  0.0mm
11:14 83.5 °F /  28.6 °C 72.1 °F /  22.3 °C 29.9in /  1012.8hPa NE 4.3mph /  6.9km/h 8mph /  12.9km/h 69.1% 0in /  0.0mm
11:19 83.7 °F /  28.7 °C 72.1 °F /  22.3 °C 29.9in /  1013.0hPa NE 4.3mph /  6.9km/h 9.2mph /  14.8km/h 68.3% 0in /  0.0mm
11:24 83.7 °F /  28.7 °C 72 °F /  22.2 °C 29.9in /  1013.0hPa NE 4.3mph /  6.9km/h 10.4mph /  16.7km/h 68% 0in /  0.0mm
11:29 83.8 °F /  28.8 °C 72.1 °F /  22.3 °C 29.9in /  1013.0hPa NNO 4.2mph /  6.8km/h 10mph /  16.1km/h 68% 0in /  0.0mm
11:34 84.2 °F /  29 °C 72.1 °F /  22.3 °C 29.9in /  1013.0hPa NE 3.6mph /  5.8km/h 7.4mph /  11.9km/h 67.2% 0in /  0.0mm
11:39 84.4 °F /  29.1 °C 72 °F /  22.2 °C 29.9in /  1012.9hPa North 3.7mph /  5.9km/h 7mph /  11.3km/h 66.2% 0in /  0.0mm
11:44 84.7 °F /  29.3 °C 72.1 °F /  22.3 °C 29.9in /  1012.9hPa NNE 4mph /  6.4km/h 7.4mph /  11.9km/h 66.2% 0in /  0.0mm
11:49 84.7 °F /  29.3 °C 71.8 °F /  22.1 °C 29.9in /  1012.9hPa North 3.9mph /  6.3km/h 7.4mph /  11.9km/h 65.2% 0in /  0.0mm
11:54 84.9 °F /  29.4 °C 72 °F /  22.2 °C 29.9in /  1012.8hPa NNO 3.1mph /  5km/h 7mph /  11.3km/h 65.1% 0in /  0.0mm
11:59 85.5 °F /  29.7 °C 72 °F /  22.2 °C 29.9in /  1012.8hPa NE 3.3mph /  5.3km/h 8.1mph /  13km/h 64.3% 0in /  0.0mm
12:04 85.5 °F /  29.7 °C 72 °F /  22.2 °C 29.9in /  1012.8hPa NNO 4mph /  6.4km/h 8mph /  12.9km/h 64% 0in /  0.0mm
12:09 86 °F /  30 °C 72.1 °F /  22.3 °C 29.9in /  1012.6hPa NNE 4mph /  6.4km/h 9.7mph /  15.6km/h 63.6% 0in /  0.0mm
12:14 86 °F /  30 °C 72 °F /  22.2 °C 29.9in /  1012.6hPa NE 3.6mph /  5.8km/h 11.5mph /  18.5km/h 63.1% 0in /  0.0mm
12:19 85.8 °F /  29.9 °C 72.3 °F /  22.4 °C 29.9in /  1012.6hPa NE 3.9mph /  6.2km/h 12mph /  19.3km/h 64.1% 0in /  0.0mm
12:24 86.2 °F /  30.1 °C 72.1 °F /  22.3 °C 29.9in /  1012.5hPa NNE 5.2mph /  8.4km/h 9mph /  14.5km/h 63.1% 0in /  0.0mm
12:29 86.5 °F /  30.3 °C 72.1 °F /  22.3 °C 29.9in /  1012.5hPa NE 5.1mph /  8.2km/h 10.7mph /  17.2km/h 62.2% 0in /  0.0mm
12:34 86.7 °F /  30.4 °C 72.1 °F /  22.3 °C 29.9in /  1012.5hPa NNE 4.7mph /  7.6km/h 11mph /  17.7km/h 62% 0in /  0.0mm
12:39 86.7 °F /  30.4 °C 72 °F /  22.2 °C 29.9in /  1012.3hPa North 4.8mph /  7.7km/h 11mph /  17.7km/h 61.7% 0in /  0.0mm
12:44 87.1 °F /  30.6 °C 72.3 °F /  22.4 °C 29.9in /  1012.3hPa NE 5.4mph /  8.7km/h 13mph /  20.9km/h 61.6% 0in /  0.0mm
12:49 87.1 °F /  30.6 °C 72.1 °F /  22.3 °C 29.9in /  1012.3hPa NNE 5.4mph /  8.7km/h 13mph /  20.9km/h 61.3% 0in /  0.0mm
12:54 87.3 °F /  30.7 °C 72.1 °F /  22.3 °C 29.9in /  1012.2hPa NNE 5.4mph /  8.7km/h 9.2mph /  14.8km/h 60.8% 0in /  0.0mm
12:59 87.4 °F /  30.8 °C 72.1 °F /  22.3 °C 29.9in /  1012.2hPa North 5.3mph /  8.5km/h 9mph /  14.5km/h 60.4% 0in /  0.0mm
13:04 88 °F /  31.1 °C 72.3 °F /  22.4 °C 29.9in /  1012.2hPa NE 4.7mph /  7.6km/h 10.4mph /  16.7km/h 60% 0in /  0.0mm
13:09 88.2 °F /  31.2 °C 72.1 °F /  22.3 °C 29.9in /  1012.0hPa North 4.8mph /  7.7km/h 10mph /  16.1km/h 59.4% 0in /  0.0mm
13:14 88.3 °F /  31.3 °C 72.5 °F /  22.5 °C 29.9in /  1012.0hPa NNE 5.2mph /  8.4km/h 10.4mph /  16.7km/h 59.7% 0in /  0.0mm
13:19 88.5 °F /  31.4 °C 72.5 °F /  22.5 °C 29.9in /  1012.0hPa North 5.2mph /  8.4km/h 11.5mph /  18.5km/h 59.2% 0in /  0.0mm
13:24 88.9 °F /  31.6 °C 72.7 °F /  22.6 °C 29.9in /  1011.9hPa NNE 5.4mph /  8.7km/h 12mph /  19.3km/h 58.9% 0in /  0.0mm
13:29 88.5 °F /  31.4 °C 72.5 °F /  22.5 °C 29.9in /  1011.9hPa NE 5.7mph /  9.2km/h 12.7mph /  20.4km/h 59% 0in /  0.0mm
13:34 88.9 °F /  31.6 °C 72.7 °F /  22.6 °C 29.9in /  1011.9hPa NE 7.4mph /  11.9km/h 13mph /  20.9km/h 58.8% 0in /  0.0mm
13:39 89.2 °F /  31.8 °C 72.5 °F /  22.5 °C 29.9in /  1011.6hPa NE 7.1mph /  11.5km/h 12.3mph /  19.8km/h 58% 0in /  0.0mm
13:44 89.6 °F /  32 °C 72.9 °F /  22.7 °C 29.9in /  1011.6hPa NNE 5.9mph /  9.5km/h 13mph /  20.9km/h 58% 0in /  0.0mm
13:49 90 °F /  32.2 °C 72.7 °F /  22.6 °C 29.9in /  1011.6hPa NE 6mph /  9.6km/h 11.5mph /  18.5km/h 57.2% 0in /  0.0mm
13:54 90.3 °F /  32.4 °C 72.7 °F /  22.6 °C 29.9in /  1011.3hPa NNE 6.2mph /  10km/h 13mph /  20.9km/h 56.4% 0in /  0.0mm
13:59 90.5 °F /  32.5 °C 72.7 °F /  22.6 °C 29.9in /  1011.3hPa NNE 6.3mph /  10.2km/h 13.8mph /  22.2km/h 56% 0in /  0.0mm
14:04 90.7 °F /  32.6 °C 72.9 °F /  22.7 °C 29.9in /  1011.3hPa NE 6.9mph /  11.1km/h 14mph /  22.5km/h 56% 0in /  0.0mm
14:09 90.9 °F /  32.7 °C 72.9 °F /  22.7 °C 29.9in /  1011.1hPa NE 6.8mph /  11km/h 14mph /  22.5km/h 55.7% 0in /  0.0mm
14:14 91.6 °F /  33.1 °C 72.9 °F /  22.7 °C 29.9in /  1011.1hPa NE 6.4mph /  10.3km/h 11.5mph /  18.5km/h 54.6% 0in /  0.0mm
14:19 91.8 °F /  33.2 °C 72.7 °F /  22.6 °C 29.9in /  1011.1hPa NNE 6.4mph /  10.3km/h 12mph /  19.3km/h 54% 0in /  0.0mm
14:24 91.9 °F /  33.3 °C 72.7 °F /  22.6 °C 29.9in /  1010.9hPa NNE 6.4mph /  10.3km/h 12mph /  19.3km/h 53.8% 0in /  0.0mm
14:29 92.1 °F /  33.4 °C 72.5 °F /  22.5 °C 29.9in /  1010.8hPa ENE 6.4mph /  10.3km/h 15mph /  24.1km/h 52.9% 0in /  0.0mm
14:34 92.5 °F /  33.6 °C 72.3 °F /  22.4 °C 29.9in /  1010.8hPa NE 6.2mph /  10km/h 15mph /  24.1km/h 52.1% 0in /  0.0mm
14:39 92.7 °F /  33.7 °C 72.3 °F /  22.4 °C 29.8in /  1010.6hPa North 6.4mph /  10.3km/h 15.2mph /  24.5km/h 52% 0in /  0.0mm
14:44 92.7 °F /  33.7 °C 72.5 °F /  22.5 °C 29.8in /  1010.6hPa NE 7.6mph /  12.2km/h 16.3mph /  26.2km/h 52% 0in /  0.0mm
14:49 92.8 °F /  33.8 °C 72.3 °F /  22.4 °C 29.8in /  1010.6hPa NE 8mph /  12.8km/h 17.5mph /  28.2km/h 51.5% 0in /  0.0mm
14:54 92.7 °F /  33.7 °C 72.9 °F /  22.7 °C 29.8in /  1010.5hPa NE 9.7mph /  15.6km/h 17mph /  27.4km/h 52.6% 0in /  0.0mm
14:59 93.2 °F /  34 °C 73 °F /  22.8 °C 29.8in /  1010.5hPa NE 9.4mph /  15.1km/h 15mph /  24.1km/h 52.4% 0in /  0.0mm
15:04 93.2 °F /  34 °C 73 °F /  22.8 °C 29.8in /  1010.5hPa NE 8.1mph /  13km/h 14mph /  22.5km/h 51.9% 0in /  0.0mm
15:09 93 °F /  33.9 °C 73 °F /  22.8 °C 29.8in /  1010.3hPa NE 8.4mph /  13.5km/h 17mph /  27.4km/h 52.3% 0in /  0.0mm
15:14 92.8 °F /  33.8 °C 73.2 °F /  22.9 °C 29.8in /  1010.3hPa NNE 9.7mph /  15.6km/h 17.5mph /  28.2km/h 52.9% 0in /  0.0mm
15:19 92.8 °F /  33.8 °C 73.2 °F /  22.9 °C 29.8in /  1010.3hPa NE 9.9mph /  15.9km/h 17.3mph /  27.8km/h 52.9% 0in /  0.0mm
15:24 92.8 °F /  33.8 °C 73 °F /  22.8 °C 29.8in /  1010.1hPa NE 10.7mph /  17.2km/h 22.5mph /  36.2km/h 52.6% 0in /  0.0mm
15:29 92.8 °F /  33.8 °C 73 °F /  22.8 °C 29.8in /  1010.0hPa NE 10.6mph /  17.1km/h 23mph /  37km/h 52.5% 0in /  0.0mm
15:34 92.8 °F /  33.8 °C 73.2 °F /  22.9 °C 29.8in /  1010.0hPa NE 10.2mph /  16.4km/h 23mph /  37km/h 53.2% 0in /  0.0mm
15:39 92.7 °F /  33.7 °C 73.2 °F /  22.9 °C 29.8in /  1010.0hPa NE 10.6mph /  17km/h 20mph /  32.2km/h 53.4% 0in /  0.0mm
15:44 92.8 °F /  33.8 °C 73.4 °F /  23 °C 29.8in /  1010.0hPa NE 12.3mph /  19.8km/h 20.1mph /  32.3km/h 53.1% 0in /  0.0mm
15:49 93 °F /  33.9 °C 73.4 °F /  23 °C 29.8in /  1010.0hPa NE 12.2mph /  19.6km/h 21mph /  33.8km/h 53% 0in /  0.0mm
15:54 93.2 °F /  34 °C 73 °F /  22.8 °C 29.8in /  1009.9hPa NE 11.4mph /  18.4km/h 21mph /  33.8km/h 52.1% 0in /  0.0mm
15:59 93 °F /  33.9 °C 72.9 °F /  22.7 °C 29.8in /  1009.9hPa NE 11.6mph /  18.6km/h 20.7mph /  33.3km/h 52.2% 0in /  0.0mm
16:04 93 °F /  33.9 °C 73 °F /  22.8 °C 29.8in /  1009.9hPa NE 12.3mph /  19.8km/h 21mph /  33.8km/h 52.4% 0in /  0.0mm
16:09 93.4 °F /  34.1 °C 73 °F /  22.8 °C 29.8in /  1009.8hPa ENE 12mph /  19.3km/h 21mph /  33.8km/h 51.9% 0in /  0.0mm
16:14 93.7 °F /  34.3 °C 73 °F /  22.8 °C 29.8in /  1009.8hPa ENE 10.2mph /  16.4km/h 16.1mph /  25.9km/h 51.2% 0in /  0.0mm
16:19 93.7 °F /  34.3 °C 72.7 °F /  22.6 °C 29.8in /  1009.8hPa Este 10.1mph /  16.2km/h 16mph /  25.7km/h 50.7% 0in /  0.0mm
16:24 93.9 °F /  34.4 °C 72.7 °F /  22.6 °C 29.8in /  1009.7hPa Este 8.5mph /  13.7km/h 13mph /  20.9km/h 50.4% 0in /  0.0mm
16:29 94.3 °F /  34.6 °C 72.7 °F /  22.6 °C 29.8in /  1009.7hPa Este 8.3mph /  13.4km/h 16.3mph /  26.2km/h 49.8% 0in /  0.0mm
16:34 94.3 °F /  34.6 °C 72.7 °F /  22.6 °C 29.8in /  1009.7hPa Este 7.4mph /  11.9km/h 16mph /  25.7km/h 49.6% 0in /  0.0mm
16:39 94.1 °F /  34.5 °C 72.5 °F /  22.5 °C 29.8in /  1009.6hPa ENE 7.3mph /  11.8km/h 15mph /  24.1km/h 50% 0in /  0.0mm
16:44 93.7 °F /  34.3 °C 72.5 °F /  22.5 °C 29.8in /  1009.6hPa Este 6.9mph /  11.1km/h 16.1mph /  25.9km/h 50.2% 0in /  0.0mm
16:49 93.6 °F /  34.2 °C 72.5 °F /  22.5 °C 29.8in /  1009.6hPa ENE 7mph /  11.2km/h 16mph /  25.7km/h 50.8% 0in /  0.0mm
16:54 93 °F /  33.9 °C 72.3 °F /  22.4 °C 29.8in /  1009.6hPa ENE 7.4mph /  11.9km/h 17.5mph /  28.2km/h 51% 0in /  0.0mm
16:59 92.8 °F /  33.8 °C 72.5 °F /  22.5 °C 29.8in /  1009.6hPa Este 7.6mph /  12.3km/h 17mph /  27.4km/h 51.8% 0in /  0.0mm
17:04 93 °F /  33.9 °C 72.3 °F /  22.4 °C 29.8in /  1009.7hPa ENE 8.7mph /  14km/h 14mph /  22.5km/h 51.1% 0in /  0.0mm
17:09 93 °F /  33.9 °C 72.7 °F /  22.6 °C 29.8in /  1009.7hPa ENE 8.5mph /  13.7km/h 14mph /  22.5km/h 51.7% 0in /  0.0mm
17:14 93 °F /  33.9 °C 72.7 °F /  22.6 °C 29.8in /  1009.7hPa Este 7.6mph /  12.2km/h 16.1mph /  25.9km/h 52% 0in /  0.0mm
17:19 92.8 °F /  33.8 °C 72.7 °F /  22.6 °C 29.8in /  1009.7hPa Este 7.5mph /  12km/h 16mph /  25.7km/h 51.9% 0in /  0.0mm
17:24 92.8 °F /  33.8 °C 72.7 °F /  22.6 °C 29.8in /  1009.6hPa ENE 6.9mph /  11.1km/h 14mph /  22.5km/h 52% 0in /  0.0mm
17:29 92.7 °F /  33.7 °C 72.5 °F /  22.5 °C 29.8in /  1009.6hPa Este 7mph /  11.2km/h 16.1mph /  25.9km/h 52% 0in /  0.0mm
17:34 92.1 °F /  33.4 °C 72.5 °F /  22.5 °C 29.8in /  1009.6hPa ESE 7.4mph /  11.9km/h 16.3mph /  26.2km/h 52.8% 0in /  0.0mm
17:39 91.8 °F /  33.2 °C 72.3 °F /  22.4 °C 29.8in /  1009.5hPa ESE 7.8mph /  12.5km/h 16.3mph /  26.2km/h 53.1% 0in /  0.0mm
17:44 91.6 °F /  33.1 °C 72 °F /  22.2 °C 29.8in /  1009.5hPa Este 9.7mph /  15.6km/h 16mph /  25.7km/h 53% 0in /  0.0mm
17:49 91.8 °F /  33.2 °C 72.3 °F /  22.4 °C 29.8in /  1009.5hPa ENE 9.3mph /  15km/h 14mph /  22.5km/h 53.5% 0in /  0.0mm
17:54 91.9 °F /  33.3 °C 72.3 °F /  22.4 °C 29.8in /  1009.4hPa ENE 7.4mph /  11.9km/h 13mph /  20.9km/h 53% 0in /  0.0mm
17:59 91.6 °F /  33.1 °C 72.5 °F /  22.5 °C 29.8in /  1009.4hPa NE 7.3mph /  11.7km/h 16.3mph /  26.2km/h 53.7% 0in /  0.0mm
18:04 91.4 °F /  33 °C 72.5 °F /  22.5 °C 29.8in /  1009.4hPa Este 6.9mph /  11.1km/h 16mph /  25.7km/h 54% 0in /  0.0mm
18:09 91 °F /  32.8 °C 72.3 °F /  22.4 °C 29.8in /  1009.4hPa ENE 6.8mph /  11km/h 13mph /  20.9km/h 54.4% 0in /  0.0mm
18:14 91.2 °F /  32.9 °C 72.9 °F /  22.7 °C 29.8in /  1009.4hPa ENE 6.4mph /  10.3km/h 13mph /  20.9km/h 55% 0in /  0.0mm
18:19 91 °F /  32.8 °C 73 °F /  22.8 °C 29.8in /  1009.4hPa ENE 6.2mph /  10km/h 12mph /  19.3km/h 55.5% 0in /  0.0mm
18:24 91 °F /  32.8 °C 73 °F /  22.8 °C 29.8in /  1009.3hPa Este 5.4mph /  8.7km/h 13.8mph /  22.2km/h 55.7% 0in /  0.0mm
18:29 90.7 °F /  32.6 °C 73.2 °F /  22.9 °C 29.8in /  1009.3hPa ENE 5.6mph /  9km/h 14mph /  22.5km/h 56.5% 0in /  0.0mm
18:34 90.3 °F /  32.4 °C 73.2 °F /  22.9 °C 29.8in /  1009.3hPa ENE 6.4mph /  10.3km/h 13mph /  20.9km/h 57.3% 0in /  0.0mm
18:39 89.8 °F /  32.1 °C 73.2 °F /  22.9 °C 29.8in /  1009.3hPa NE 6.9mph /  11.1km/h 16.3mph /  26.2km/h 58.4% 0in /  0.0mm
18:44 89.4 °F /  31.9 °C 73.2 °F /  22.9 °C 29.8in /  1009.3hPa NE 9.2mph /  14.8km/h 17.5mph /  28.2km/h 59% 0in /  0.0mm
18:49 89.1 °F /  31.7 °C 72.9 °F /  22.7 °C 29.8in /  1009.3hPa NE 9.3mph /  14.9km/h 17.5mph /  28.2km/h 59% 0in /  0.0mm
18:54 89.1 °F /  31.7 °C 72.9 °F /  22.7 °C 29.8in /  1009.3hPa NE 9.7mph /  15.6km/h 17mph /  27.4km/h 59.3% 0in /  0.0mm
18:59 88.9 °F /  31.6 °C 72.9 °F /  22.7 °C 29.8in /  1009.3hPa NE 9.4mph /  15.2km/h 15.2mph /  24.5km/h 59.2% 0in /  0.0mm
19:04 88.9 °F /  31.6 °C 72.9 °F /  22.7 °C 29.8in /  1009.3hPa NE 8.5mph /  13.7km/h 15mph /  24.1km/h 59.3% 0in /  0.0mm
19:09 88.5 °F /  31.4 °C 72.9 °F /  22.7 °C 29.8in /  1009.3hPa NE 8.7mph /  14km/h 16.8mph /  27km/h 60% 0in /  0.0mm
19:14 88.2 °F /  31.2 °C 72.5 °F /  22.5 °C 29.8in /  1009.3hPa NNE 10mph /  16.1km/h 17.3mph /  27.8km/h 60% 0in /  0.0mm
19:19 88 °F /  31.1 °C 72.5 °F /  22.5 °C 29.8in /  1009.3hPa NE 10.1mph /  16.3km/h 17.3mph /  27.8km/h 60.3% 0in /  0.0mm
19:24 87.6 °F /  30.9 °C 72.5 °F /  22.5 °C 29.8in /  1009.2hPa NE 10.7mph /  17.2km/h 17mph /  27.4km/h 60.9% 0in /  0.0mm
19:29 87.6 °F /  30.9 °C 72.5 °F /  22.5 °C 29.8in /  1009.2hPa NE 10.6mph /  17km/h 18.5mph /  29.8km/h 60.9% 0in /  0.0mm
19:34 87.4 °F /  30.8 °C 71.4 °F /  21.9 °C 29.8in /  1009.2hPa NE 9.7mph /  15.6km/h 19mph /  30.6km/h 59% 0in /  0.0mm
19:39 87.1 °F /  30.6 °C 71.1 °F /  21.7 °C 29.8in /  1009.2hPa NE 9.9mph /  16km/h 19mph /  30.6km/h 59.1% 0in /  0.0mm
19:44 86.9 °F /  30.5 °C 71.2 °F /  21.8 °C 29.8in /  1009.2hPa NE 11.2mph /  18km/h 18mph /  29km/h 59.8% 0in /  0.0mm
19:49 86.5 °F /  30.3 °C 71.2 °F /  21.8 °C 29.8in /  1009.2hPa NE 11mph /  17.7km/h 18.4mph /  29.6km/h 60.2% 0in /  0.0mm
19:54 86.4 °F /  30.2 °C 71.2 °F /  21.8 °C 29.8in /  1009.1hPa NE 10mph /  16.1km/h 18.4mph /  29.6km/h 61% 0in /  0.0mm
19:59 86 °F /  30 °C 71.2 °F /  21.8 °C 29.8in /  1009.1hPa NE 10.3mph /  16.5km/h 18.5mph /  29.8km/h 61.5% 0in /  0.0mm
20:04 85.8 °F /  29.9 °C 71.2 °F /  21.8 °C 29.8in /  1009.1hPa NE 11.4mph /  18.4km/h 19mph /  30.6km/h 62% 0in /  0.0mm
20:09 85.6 °F /  29.8 °C 71.2 °F /  21.8 °C 29.8in /  1009.0hPa NE 11.2mph /  18.1km/h 18.4mph /  29.6km/h 62% 0in /  0.0mm
20:14 85.5 °F /  29.7 °C 71.4 °F /  21.9 °C 29.8in /  1009.0hPa NE 10.2mph /  16.4km/h 18mph /  29km/h 63% 0in /  0.0mm
20:19 85.1 °F /  29.5 °C 71.1 °F /  21.7 °C 29.8in /  1009.3hPa NE 10.3mph /  16.6km/h 17mph /  27.4km/h 63% 0in /  0.0mm
20:24 85.1 °F /  29.5 °C 71.1 °F /  21.7 °C 29.8in /  1009.3hPa NE 10.7mph /  17.2km/h 16.3mph /  26.2km/h 63% 0in /  0.0mm
20:29 84.9 °F /  29.4 °C 71.1 °F /  21.7 °C 29.8in /  1009.3hPa NE 10.6mph /  17km/h 17.5mph /  28.2km/h 63% 0in /  0.0mm
20:34 84.7 °F /  29.3 °C 70.9 °F /  21.6 °C 29.8in /  1009.5hPa NE 10mph /  16.1km/h 17mph /  27.4km/h 63.3% 0in /  0.0mm
20:39 84.6 °F /  29.2 °C 70.9 °F /  21.6 °C 29.8in /  1009.5hPa NE 9.8mph /  15.7km/h 16.1mph /  25.9km/h 63.6% 0in /  0.0mm
20:44 84.4 °F /  29.1 °C 70.3 °F /  21.3 °C 29.8in /  1009.5hPa NE 8.7mph /  14km/h 17.3mph /  27.8km/h 63% 0in /  0.0mm
20:49 84 °F /  28.9 °C 70.2 °F /  21.2 °C 29.8in /  1009.6hPa NE 8.9mph /  14.3km/h 17mph /  27.4km/h 63% 0in /  0.0mm
20:54 83.8 °F /  28.8 °C 70 °F /  21.1 °C 29.8in /  1009.6hPa NE 9.7mph /  15.6km/h 16.8mph /  27km/h 63% 0in /  0.0mm
20:59 83.7 °F /  28.7 °C 69.8 °F /  21 °C 29.8in /  1009.6hPa NE 9.8mph /  15.7km/h 17.3mph /  27.8km/h 63% 0in /  0.0mm
21:04 83.7 °F /  28.7 °C 69.6 °F /  20.9 °C 29.8in /  1009.8hPa NE 10mph /  16.1km/h 17mph /  27.4km/h 63% 0in /  0.0mm
21:09 83.5 °F /  28.6 °C 69.8 °F /  21 °C 29.8in /  1009.8hPa NE 9.7mph /  15.6km/h 15.6mph /  25.1km/h 63.7% 0in /  0.0mm
21:14 83.3 °F /  28.5 °C 70.2 °F /  21.2 °C 29.8in /  1009.8hPa NE 8.1mph /  13km/h 16.1mph /  25.9km/h 64.8% 0in /  0.0mm
21:19 82.9 °F /  28.3 °C 70.5 °F /  21.4 °C 29.8in /  1010.0hPa NE 8.3mph /  13.3km/h 14mph /  22.5km/h 65.9% 0in /  0.0mm
21:24 82.9 °F /  28.3 °C 70.3 °F /  21.3 °C 29.8in /  1010.0hPa NE 9.2mph /  14.8km/h 13mph /  20.9km/h 66% 0in /  0.0mm
21:29 82.9 °F /  28.3 °C 70.5 °F /  21.4 °C 29.8in /  1010.0hPa NE 8.9mph /  14.4km/h 13mph /  20.9km/h 66.5% 0in /  0.0mm
21:34 82.8 °F /  28.2 °C 70.2 °F /  21.2 °C 29.8in /  1010.3hPa NE 7.4mph /  11.9km/h 12mph /  19.3km/h 66% 0in /  0.0mm
21:39 82.8 °F /  28.2 °C 70.2 °F /  21.2 °C 29.8in /  1010.3hPa NE 7.1mph /  11.5km/h 11.5mph /  18.5km/h 66% 0in /  0.0mm
21:44 82.8 °F /  28.2 °C 70.2 °F /  21.2 °C 29.8in /  1010.3hPa ENE 5.9mph /  9.5km/h 12mph /  19.3km/h 66% 0in /  0.0mm
21:49 82.9 °F /  28.3 °C 70.5 °F /  21.4 °C 29.8in /  1010.6hPa ESE 5.7mph /  9.1km/h 9.2mph /  14.8km/h 66.6% 0in /  0.0mm
21:54 82.9 °F /  28.3 °C 70.9 °F /  21.6 °C 29.8in /  1010.6hPa ESE 4.3mph /  6.9km/h 11.4mph /  18.3km/h 67.2% 0in /  0.0mm
21:59 82.8 °F /  28.2 °C 70.7 °F /  21.5 °C 29.8in /  1010.6hPa ESE 4.7mph /  7.5km/h 15mph /  24.1km/h 67% 0in /  0.0mm
22:04 82.6 °F /  28.1 °C 70.7 °F /  21.5 °C 29.9in /  1011.0hPa Este 6.2mph /  10km/h 15mph /  24.1km/h 67.6% 0in /  0.0mm
22:09 82.2 °F /  27.9 °C 70.7 °F /  21.5 °C 29.9in /  1011.0hPa Este 6.4mph /  10.3km/h 12.7mph /  20.4km/h 68% 0in /  0.0mm
22:14 82 °F /  27.8 °C 70.9 °F /  21.6 °C 29.9in /  1011.0hPa Este 7.4mph /  11.9km/h 13mph /  20.9km/h 68.9% 0in /  0.0mm
22:19 82 °F /  27.8 °C 71.1 °F /  21.7 °C 29.9in /  1011.2hPa Este 7.2mph /  11.6km/h 12.7mph /  20.4km/h 69.6% 0in /  0.0mm
22:24 81.9 °F /  27.7 °C 71.2 °F /  21.8 °C 29.9in /  1011.2hPa Este 6.4mph /  10.3km/h 13mph /  20.9km/h 70.2% 0in /  0.0mm
22:29 81.9 °F /  27.7 °C 71.4 °F /  21.9 °C 29.9in /  1011.2hPa Este 6.3mph /  10.2km/h 11mph /  17.7km/h 71% 0in /  0.0mm
22:34 81.9 °F /  27.7 °C 71.4 °F /  21.9 °C 29.9in /  1011.3hPa ESE 5.9mph /  9.5km/h 10.4mph /  16.7km/h 71% 0in /  0.0mm
22:39 81.9 °F /  27.7 °C 71.4 °F /  21.9 °C 29.9in /  1011.3hPa Este 5.8mph /  9.3km/h 10.4mph /  16.7km/h 71% 0in /  0.0mm
22:44 81.7 °F /  27.6 °C 71.4 °F /  21.9 °C 29.9in /  1011.3hPa Este 5.2mph /  8.4km/h 10.4mph /  16.7km/h 71.1% 0in /  0.0mm
22:49 81.7 °F /  27.6 °C 71.8 °F /  22.1 °C 29.9in /  1011.3hPa ENE 5.1mph /  8.2km/h 10mph /  16.1km/h 72% 0in /  0.0mm
22:54 81.5 °F /  27.5 °C 71.6 °F /  22 °C 29.9in /  1011.3hPa NE 4.7mph /  7.6km/h 8mph /  12.9km/h 72% 0in /  0.0mm
22:59 81.5 °F /  27.5 °C 71.6 °F /  22 °C 29.9in /  1011.3hPa NE 4.5mph /  7.2km/h 7.4mph /  11.9km/h 72% 0in /  0.0mm
23:04 81.3 °F /  27.4 °C 71.4 °F /  21.9 °C 29.9in /  1011.4hPa NE 3.6mph /  5.8km/h 8.5mph /  13.7km/h 72% 0in /  0.0mm
23:09 81.1 °F /  27.3 °C 71.4 °F /  21.9 °C 29.9in /  1011.4hPa NE 3.9mph /  6.3km/h 9.2mph /  14.8km/h 72% 0in /  0.0mm
23:14 81.1 °F /  27.3 °C 70.9 °F /  21.6 °C 29.9in /  1011.4hPa NNE 5.4mph /  8.7km/h 9mph /  14.5km/h 71.1% 0in /  0.0mm
23:19 81 °F /  27.2 °C 70.7 °F /  21.5 °C 29.9in /  1011.5hPa NE 5.3mph /  8.5km/h 8mph /  12.9km/h 71.1% 0in /  0.0mm
23:24 80.8 °F /  27.1 °C 70.9 °F /  21.6 °C 29.9in /  1011.5hPa NNE 4.7mph /  7.6km/h 8.1mph /  13km/h 71.9% 0in /  0.0mm
23:29 80.8 °F /  27.1 °C 70.9 °F /  21.6 °C 29.9in /  1011.5hPa NE 4.8mph /  7.7km/h 8.1mph /  13km/h 72.1% 0in /  0.0mm
23:34 80.8 °F /  27.1 °C 71.2 °F /  21.8 °C 29.9in /  1011.6hPa NE 5.2mph /  8.4km/h 9.2mph /  14.8km/h 73.3% 0in /  0.0mm
23:39 80.4 °F /  26.9 °C 71.4 °F /  21.9 °C 29.9in /  1011.6hPa NE 5.2mph /  8.4km/h 9mph /  14.5km/h 74.2% 0in /  0.0mm
23:44 80.2 °F /  26.8 °C 71.8 °F /  22.1 °C 29.9in /  1011.6hPa NE 5.4mph /  8.7km/h 9.2mph /  14.8km/h 75.3% 0in /  0.0mm
23:49 80.2 °F /  26.8 °C 72 °F /  22.2 °C 29.9in /  1011.6hPa NE 5.4mph /  8.7km/h 9.2mph /  14.8km/h 76% 0in /  0.0mm
23:54 80.2 °F /  26.8 °C 72.1 °F /  22.3 °C 29.9in /  1011.6hPa NE 5.4mph /  8.7km/h 9.2mph /  14.8km/h 76.4% 0in /  0.0mm
23:59 80.1 °F /  26.7 °C 72.3 °F /  22.4 °C 29.9in /  1011.6hPa NE 5.5mph /  8.9km/h 9.2mph /  14.8km/h 77.2% 0in /  0.0mm
Murcia-Puente Tocinos, España
Compliments of Weather Underground - 2.75 mb

La estación de MeteoMurcia.com, publica sus datos en los siguientes proyectos:

Weather Underground PWS IMURCIAP2 Meteoclimatic www.awekas.at

W3Counter
Web Analytics